Time;durP1;ratioP1;P1;durP2;ratioP2;P2;SDS_P1;SDS_P2;PMS_P1;PMS_P2;Temp;Humidity;BMP_temperature;BMP_pressure;BME280_temperature;BME280_humidity;BME280_pressure;Samples;Min_cycle;Max_cycle;Signal;HPM_P1;HPM_P2
2022/12/15 00:42:33;;;;;;;23.35;12.20;;;-7.20;99.90;;;;;;7379425;32;20149;-58
2022/12/15 00:46:53;;;;;;;22.10;11.63;;;-7.10;99.90;;;;;;7384440;32;20208;-59
2022/12/15 00:50:55;;;;;;;20.15;11.07;;;-7.00;99.90;;;;;;7374829;32;20129;-59
2022/12/15 01:21:04;;;;;;;30.73;14.30;;;-5.80;99.90;;;;;;7374743;32;20111;-59
2022/12/15 01:25:08;;;;;;;31.98;15.20;;;-5.60;99.90;;;;;;7377987;32;20236;-60
2022/12/15 01:29:09;;;;;;;34.75;16.23;;;-5.60;99.90;;;;;;7383732;32;20129;-59
2022/12/15 01:33:12;;;;;;;37.08;16.15;;;-5.50;99.90;;;;;;7378689;32;20103;-59
2022/12/15 01:37:14;;;;;;;34.78;16.52;;;-5.50;99.90;;;;;;7374555;32;20197;-60
2022/12/15 01:41:15;;;;;;;32.78;15.57;;;-5.50;99.90;;;;;;7373835;32;20570;-59
2022/12/15 01:45:23;;;;;;;37.58;18.00;;;-5.40;99.90;;;;;;7382970;32;20107;-59
2022/12/15 01:49:30;;;;;;;35.83;15.95;;;-5.30;99.90;;;;;;7374432;32;20107;-59
2022/12/15 01:53:36;;;;;;;38.83;16.70;;;-5.30;99.90;;;;;;7380279;32;20106;-58
2022/12/15 01:57:38;;;;;;;39.78;16.62;;;-5.20;99.90;;;;;;7376022;32;20125;-59
2022/12/15 02:01:40;;;;;;;39.42;16.35;;;-5.20;99.90;;;;;;7380302;32;20106;-59
2022/12/15 02:05:42;;;;;;;43.20;17.62;;;-5.20;99.90;;;;;;7376367;32;20493;-58
2022/12/15 02:09:47;;;;;;;41.10;18.33;;;-5.10;99.90;;;;;;7375637;32;20202;-58
2022/12/15 02:14:00;;;;;;;39.80;18.42;;;-4.90;99.90;;;;;;7373593;32;20130;-59
2022/12/15 02:18:41;;;;;;;45.00;19.58;;;-4.80;99.90;;;;;;7374735;32;20134;-60
2022/12/15 02:23:14;;;;;;;43.13;19.45;;;-4.70;99.90;;;;;;7326881;32;20110;-61
2022/12/15 02:27:33;;;;;;;42.83;19.65;;;-4.60;99.90;;;;;;7378442;32;20245;-58
2022/12/15 02:32:07;;;;;;;37.20;18.80;;;-4.60;99.90;;;;;;7375183;32;20229;-59
2022/12/15 02:36:24;;;;;;;41.88;18.37;;;-4.60;99.90;;;;;;7362947;32;20115;-59
2022/12/15 02:40:26;;;;;;;;;;;-4.60;99.90;;;;;;7382473;32;20129;-60
2022/12/15 02:44:37;;;;;;;41.15;19.70;;;-4.60;99.90;;;;;;7381722;32;20088;-58
2022/12/15 02:49:08;;;;;;;39.47;17.48;;;-4.70;99.90;;;;;;7376026;32;20111;-59
2022/12/15 02:53:30;;;;;;;35.10;17.62;;;-4.70;99.90;;;;;;7383335;32;20130;-59
2022/12/15 02:57:41;;;;;;;34.97;18.27;;;-4.80;99.90;;;;;;7375381;32;20134;-58
2022/12/15 03:01:50;;;;;;;37.95;18.17;;;-4.90;99.90;;;;;;7374454;32;20129;-58
2022/12/15 03:05:53;;;;;;;36.65;18.10;;;-4.80;99.90;;;;;;7368612;32;20119;-60
2022/12/15 03:09:57;;;;;;;38.55;19.52;;;-4.80;99.90;;;;;;7375030;32;20190;-58
2022/12/15 03:13:59;;;;;;;36.35;18.42;;;-4.80;99.90;;;;;;7371507;32;20782;-59
2022/12/15 03:18:00;;;;;;;36.08;18.15;;;-4.80;99.90;;;;;;7377521;32;20454;-58
2022/12/15 03:22:03;;;;;;;38.08;17.90;;;-4.80;99.90;;;;;;7376010;32;20601;-59
2022/12/15 03:26:05;;;;;;;38.70;19.50;;;-4.80;99.90;;;;;;7381951;32;20212;-59
2022/12/15 03:30:07;;;;;;;38.58;18.33;;;-4.90;99.90;;;;;;7372000;32;20190;-58
2022/12/15 03:34:10;;;;;;;42.08;19.60;;;-4.90;99.90;;;;;;7377141;32;20165;-59
2022/12/15 03:38:12;;;;;;;35.95;18.85;;;-4.90;99.90;;;;;;7374164;32;20119;-59
2022/12/15 03:42:46;;;;;;;37.55;19.27;;;-5.00;99.90;;;;;;7371940;32;20458;-59
2022/12/15 03:46:35;;;;;;;36.95;18.85;;;-5.00;99.90;;;;;;7378301;32;20224;-58
2022/12/15 03:50:37;;;;;;;37.63;18.25;;;-5.10;99.90;;;;;;7382743;32;20217;-60
2022/12/15 03:54:38;;;;;;;41.72;19.02;;;-5.20;99.90;;;;;;7381436;32;20107;-59
2022/12/15 03:58:40;;;;;;;43.85;18.45;;;-5.20;99.90;;;;;;7370451;32;20099;-59
2022/12/15 04:02:43;;;;;;;48.60;21.00;;;-5.10;99.90;;;;;;7382157;32;20115;-58
2022/12/15 04:06:45;;;;;;;43.87;20.02;;;-5.10;99.90;;;;;;7385389;32;20243;-59
2022/12/15 04:10:46;;;;;;;50.40;20.37;;;-5.00;99.90;;;;;;7371523;32;20099;-61
2022/12/15 04:14:48;;;;;;;48.95;21.02;;;-5.10;99.90;;;;;;7383410;32;20103;-59
2022/12/15 04:20:07;;;;;;;46.50;21.15;;;-5.10;99.90;;;;;;7381475;32;20114;-59
2022/12/15 04:23:13;;;;;;;53.75;20.80;;;-5.10;99.90;;;;;;7384008;32;20157;-59
2022/12/15 05:32:26;;;;;;;42.15;19.17;;;-5.20;99.90;;;;;;7376183;32;20118;-61
2022/12/15 05:36:28;;;;;;;46.65;19.95;;;-5.20;99.90;;;;;;7372820;32;20111;-60
2022/12/15 05:40:29;;;;;;;50.05;21.60;;;-5.10;99.90;;;;;;7373955;32;20126;-60
2022/12/15 05:44:31;;;;;;;46.63;18.98;;;-5.00;99.90;;;;;;7382884;32;20197;-59
2022/12/15 05:48:33;;;;;;;54.92;21.37;;;-5.00;99.90;;;;;;7377893;32;20134;-60
2022/12/15 05:52:34;;;;;;;55.97;22.77;;;-5.00;99.90;;;;;;7376294;32;20564;-59
2022/12/15 05:56:37;;;;;;;47.45;21.50;;;-4.90;99.90;;;;;;7372311;32;20206;-60
2022/12/15 06:00:38;;;;;;;44.38;20.98;;;-4.80;99.90;;;;;;7369400;32;20589;-61
2022/12/15 06:04:40;;;;;;;48.67;20.92;;;-4.70;99.90;;;;;;7374203;32;20237;-61
2022/12/15 06:08:42;;;;;;;53.40;22.62;;;-4.60;99.90;;;;;;7375754;32;20345;-58
2022/12/15 06:12:44;;;;;;;53.92;22.02;;;-4.50;99.90;;;;;;7369961;32;20214;-59
2022/12/15 06:16:45;;;;;;;51.17;23.10;;;-4.50;99.90;;;;;;7374685;32;20216;-61
2022/12/15 06:21:04;;;;;;;56.85;24.58;;;-4.50;99.90;;;;;;7376408;32;20102;-59
2022/12/15 06:25:06;;;;;;;57.97;24.80;;;-4.40;99.90;;;;;;7371174;32;20234;-59
2022/12/15 06:29:10;;;;;;;63.50;26.30;;;-4.40;99.90;;;;;;7375992;32;20107;-58
2022/12/15 06:33:12;;;;;;;60.50;26.60;;;-4.30;99.90;;;;;;7367069;32;20103;-58
2022/12/15 06:37:14;;;;;;;64.37;26.12;;;-4.40;99.90;;;;;;7376095;32;20454;-58
2022/12/15 06:41:17;;;;;;;59.75;24.42;;;-4.30;99.90;;;;;;7366675;32;20186;-58
2022/12/15 06:45:19;;;;;;;64.20;27.08;;;-4.40;99.90;;;;;;7371841;32;20598;-59
2022/12/15 06:49:20;;;;;;;60.10;26.40;;;-4.40;99.90;;;;;;7374074;32;20096;-61
2022/12/15 06:53:23;;;;;;;58.15;24.75;;;-4.50;99.90;;;;;;7381125;32;20107;-59
2022/12/15 06:57:24;;;;;;;58.20;25.62;;;-4.50;99.90;;;;;;7373935;32;20134;-59
2022/12/15 07:01:26;;;;;;;62.55;24.87;;;-4.30;99.90;;;;;;7375028;32;20220;-58
2022/12/15 07:05:28;;;;;;;59.75;25.35;;;-4.30;99.90;;;;;;7373379;32;20111;-59
2022/12/15 07:09:30;;;;;;;50.42;22.60;;;-4.30;99.90;;;;;;7379100;32;20110;-60
2022/12/15 07:13:32;;;;;;;56.85;24.17;;;-4.40;99.90;;;;;;7374380;32;20220;-61
2022/12/15 07:17:35;;;;;;;50.20;23.67;;;-4.50;99.90;;;;;;7374226;32;20125;-59
2022/12/15 07:21:37;;;;;;;54.95;25.00;;;-4.50;99.90;;;;;;7365537;32;20229;-59
2022/12/15 07:25:39;;;;;;;59.22;23.58;;;-4.60;99.90;;;;;;7370929;32;20190;-59
2022/12/15 07:29:41;;;;;;;44.33;22.17;;;-4.60;99.90;;;;;;7378351;32;20459;-58
2022/12/15 07:33:42;;;;;;;46.72;21.77;;;-4.60;99.90;;;;;;7374016;32;20112;-59
2022/12/15 07:37:44;;;;;;;50.10;20.65;;;-4.60;99.90;;;;;;7382344;32;20107;-59
2022/12/15 07:41:46;;;;;;;45.17;20.52;;;-4.40;99.90;;;;;;7377320;32;20573;-60
2022/12/15 07:45:52;;;;;;;50.25;21.15;;;-4.50;99.90;;;;;;7378691;32;20114;-59
2022/12/15 07:49:53;;;;;;;44.60;20.80;;;-4.40;99.90;;;;;;7370790;32;20475;-59
2022/12/15 07:53:55;;;;;;;56.47;22.90;;;-4.40;99.90;;;;;;7380235;32;20588;-60
2022/12/15 07:57:57;;;;;;;50.67;21.83;;;-4.40;99.90;;;;;;7373072;32;20243;-60
2022/12/15 08:02:00;;;;;;;52.28;22.20;;;-4.30;99.90;;;;;;7377144;32;20190;-59
2022/12/15 08:06:04;;;;;;;53.47;23.83;;;-4.10;99.90;;;;;;7373714;32;20182;-59
2022/12/15 08:10:06;;;;;;;58.03;23.65;;;-4.00;99.90;;;;;;7373186;32;20201;-59
2022/12/15 08:14:07;;;;;;;51.10;23.05;;;-3.90;99.90;;;;;;7369671;32;20524;-59
2022/12/15 08:18:17;;;;;;;54.78;23.90;;;-3.90;99.90;;;;;;7373754;32;20164;-60
2022/12/15 08:22:19;;;;;;;53.65;25.42;;;-3.90;99.90;;;;;;7378684;32;20432;-61
2022/12/15 08:26:20;;;;;;;51.83;23.55;;;-3.80;99.90;;;;;;7376138;32;20107;-60
2022/12/15 08:30:32;;;;;;;61.72;27.77;;;-3.70;99.90;;;;;;7381226;32;20115;-59
2022/12/15 08:34:34;;;;;;;58.42;25.90;;;-3.70;99.90;;;;;;7377979;32;20125;-60
2022/12/15 08:38:37;;;;;;;58.92;25.27;;;-3.60;99.90;;;;;;7379221;32;20653;-60
2022/12/15 08:42:39;;;;;;;58.25;26.10;;;-3.50;99.90;;;;;;7375594;32;20159;-60
2022/12/15 08:46:41;;;;;;;47.22;24.77;;;-3.30;99.90;;;;;;7377948;32;20106;-60
2022/12/15 08:50:45;;;;;;;51.37;23.83;;;-3.30;99.90;;;;;;7369393;32;20233;-60
2022/12/15 08:54:48;;;;;;;54.78;25.33;;;-3.10;99.90;;;;;;7362897;32;20409;-59
2022/12/15 08:58:55;;;;;;;52.20;24.92;;;-3.10;99.90;;;;;;7375329;32;20153;-60
2022/12/15 09:02:59;;;;;;;55.05;26.75;;;-3.10;99.90;;;;;;7381256;32;20225;-60
2022/12/15 09:07:00;;;;;;;54.65;24.83;;;-3.10;99.90;;;;;;7386395;32;20115;-60
2022/12/15 09:11:04;;;;;;;59.40;28.48;;;-3.10;99.90;;;;;;7376346;32;20258;-61
2022/12/15 09:15:06;;;;;;;59.03;26.87;;;-3.20;99.90;;;;;;7381101;32;20219;-61
2022/12/15 09:19:08;;;;;;;58.45;27.45;;;-3.20;99.90;;;;;;7373237;32;20103;-60
2022/12/15 09:23:10;;;;;;;59.92;29.55;;;-3.30;99.90;;;;;;7374825;32;20141;-60
2022/12/15 09:27:11;;;;;;;62.05;30.30;;;-3.30;99.90;;;;;;7379962;32;20129;-60
2022/12/15 09:31:27;;;;;;;62.72;30.42;;;-3.10;99.90;;;;;;7379723;32;20534;-60
2022/12/15 09:35:29;;;;;;;58.37;28.30;;;-3.10;99.90;;;;;;7374468;32;20571;-60
2022/12/15 09:39:31;;;;;;;58.78;28.70;;;-3.10;99.90;;;;;;7373639;32;20115;-61
2022/12/15 09:43:33;;;;;;;64.35;29.87;;;-3.00;99.90;;;;;;7380282;32;20787;-60
2022/12/15 09:47:59;;;;;;;67.55;31.27;;;-3.10;99.90;;;;;;7363450;32;20119;-60
2022/12/15 09:52:21;;;;;;;68.60;32.38;;;-3.00;99.90;;;;;;7380434;32;20156;-60
2022/12/15 09:56:48;;;;;;;64.85;32.35;;;-2.90;99.90;;;;;;7375380;32;20134;-60
2022/12/15 10:01:35;;;;;;;62.28;30.80;;;-2.90;99.90;;;;;;7375750;32;20118;-60
2022/12/15 10:06:03;;;;;;;64.85;31.75;;;-2.80;99.90;;;;;;7365812;32;20288;-61
2022/12/15 10:10:28;;;;;;;60.55;31.20;;;-2.70;99.90;;;;;;7376481;32;20557;-60
2022/12/15 10:14:31;;;;;;;67.93;32.30;;;-2.60;99.90;;;;;;7378075;32;20103;-61
2022/12/15 10:19:14;;;;;;;66.72;33.83;;;-2.70;99.90;;;;;;7375510;32;20618;-61
2022/12/15 10:23:16;;;;;;;68.25;32.58;;;-2.60;99.90;;;;;;7316328;32;20221;-60
2022/12/15 10:27:42;;;;;;;66.18;33.90;;;-2.40;99.90;;;;;;7382403;32;20278;-60
2022/12/15 10:31:54;;;;;;;61.37;32.33;;;-2.30;99.90;;;;;;7373391;32;20226;-59
2022/12/15 10:35:56;;;;;;;60.72;32.10;;;-2.30;99.90;;;;;;7379729;32;20585;-59
2022/12/15 10:39:57;;;;;;;59.25;29.73;;;-2.10;99.90;;;;;;7377384;32;20495;-60
2022/12/15 10:44:01;;;;;;;64.37;32.05;;;-2.00;99.90;;;;;;7374010;32;20219;-58
2022/12/15 10:48:05;;;;;;;69.30;32.78;;;-2.10;99.90;;;;;;7375952;32;20123;-59
2022/12/15 10:52:20;;;;;;;60.38;30.95;;;-2.00;99.90;;;;;;7370690;32;20213;-60
2022/12/15 10:56:25;;;;;;;63.83;33.13;;;-2.00;99.90;;;;;;7379612;32;20450;-59
2022/12/15 11:00:34;;;;;;;64.00;31.58;;;-2.00;99.90;;;;;;7369842;32;20138;-59
2022/12/15 11:04:36;;;;;;;60.12;32.13;;;-2.20;99.90;;;;;;7370033;32;20114;-60
2022/12/15 11:08:41;;;;;;;59.35;31.65;;;-2.10;99.90;;;;;;7378034;32;20474;-60
2022/12/15 11:12:53;;;;;;;61.35;32.97;;;-2.10;99.90;;;;;;7379274;32;20131;-59
2022/12/15 11:16:59;;;;;;;65.37;32.50;;;-2.00;99.90;;;;;;7371926;32;20122;-59
2022/12/15 11:21:11;;;;;;;62.75;31.85;;;-1.90;99.90;;;;;;7375035;32;20149;-60
2022/12/15 11:25:23;;;;;;;65.43;32.95;;;-1.90;99.90;;;;;;7383740;32;20190;-59
2022/12/15 11:29:36;;;;;;;66.18;33.67;;;-1.80;99.90;;;;;;7381503;32;20198;-59
2022/12/15 11:33:38;;;;;;;64.97;35.20;;;-1.90;99.90;;;;;;7372450;32;20171;-60
2022/12/15 11:37:45;;;;;;;70.35;34.33;;;-1.90;99.90;;;;;;7377407;32;20195;-60
2022/12/15 11:42:20;;;;;;;68.07;34.67;;;-1.80;99.90;;;;;;7376125;32;20229;-60
2022/12/15 11:46:26;;;;;;;69.65;36.17;;;-1.60;99.90;;;;;;7334145;32;20111;-60
2022/12/15 11:50:38;;;;;;;61.90;33.92;;;-1.50;99.90;;;;;;7370227;32;20678;-60
2022/12/15 11:54:52;;;;;;;65.20;32.92;;;-1.30;99.90;;;;;;7382954;32;20802;-59
2022/12/15 11:59:10;;;;;;;63.70;33.25;;;-1.30;99.90;;;;;;7371755;32;20166;-60
2022/12/15 12:03:29;;;;;;;64.22;32.50;;;-1.40;99.90;;;;;;7378886;32;20107;-59
2022/12/15 12:08:13;;;;;;;66.22;32.72;;;-1.50;99.90;;;;;;7379655;32;20103;-59
2022/12/15 12:12:26;;;;;;;63.70;32.95;;;-1.40;99.90;;;;;;7361482;32;20133;-61
2022/12/15 12:16:44;;;;;;;59.10;30.50;;;-1.50;99.90;;;;;;7375923;32;20118;-58
2022/12/15 12:21:01;;;;;;;64.53;33.05;;;-1.60;99.90;;;;;;7376579;32;20153;-60
2022/12/15 12:25:15;;;;;;;63.00;31.92;;;-1.70;99.90;;;;;;7375719;32;20198;-60
2022/12/15 12:29:27;;;;;;;66.70;34.30;;;-1.70;99.90;;;;;;7383993;32;20194;-60
2022/12/15 12:33:45;;;;;;;63.95;33.22;;;-1.70;99.90;;;;;;7380290;32;20099;-61
2022/12/15 12:37:59;;;;;;;68.00;33.50;;;-1.60;99.90;;;;;;7375955;32;20680;-61
2022/12/15 12:42:08;;;;;;;66.53;33.80;;;-1.60;99.90;;;;;;7379973;32;20300;-60
2022/12/15 12:46:14;;;;;;;64.37;32.88;;;-1.70;99.90;;;;;;7378078;32;20522;-60
2022/12/15 12:50:24;;;;;;;62.97;33.07;;;-1.80;99.90;;;;;;7377911;32;20121;-61
2022/12/15 12:54:35;;;;;;;70.72;33.15;;;-1.70;99.90;;;;;;7371444;32;21017;-60
2022/12/15 12:58:40;;;;;;;59.80;31.37;;;-1.70;99.90;;;;;;7369393;32;20212;-61
2022/12/15 13:02:53;;;;;;;63.05;31.67;;;-1.70;99.90;;;;;;7385851;32;20491;-59
2022/12/15 13:06:59;;;;;;;62.28;31.23;;;-1.70;99.90;;;;;;7375522;32;20223;-59
2022/12/15 13:11:44;;;;;;;54.83;29.23;;;-1.70;99.90;;;;;;7371039;32;20137;-59
2022/12/15 13:15:48;;;;;;;61.00;29.73;;;-1.80;99.90;;;;;;7374145;32;20563;-59
2022/12/15 13:20:09;;;;;;;55.97;29.40;;;-1.90;99.90;;;;;;7378211;32;20102;-59
2022/12/15 13:24:40;;;;;;;53.30;28.20;;;-1.80;99.90;;;;;;7376463;32;20226;-58
2022/12/15 13:28:46;;;;;;;51.78;27.77;;;-1.90;99.90;;;;;;7366462;32;20543;-59
2022/12/15 13:33:12;;;;;;;53.85;28.40;;;-1.70;99.90;;;;;;7369666;32;20115;-59
2022/12/15 13:37:50;;;;;;;52.90;27.13;;;-1.60;99.90;;;;;;7367477;32;20115;-59
2022/12/15 13:41:51;;;;;;;54.67;28.38;;;-1.50;99.90;;;;;;7370634;32;20229;-59
2022/12/15 13:46:31;;;;;;;53.83;27.65;;;-1.50;99.90;;;;;;7369389;32;20213;-61
2022/12/15 13:50:46;;;;;;;53.08;28.20;;;-1.50;99.90;;;;;;7368419;32;20177;-59
2022/12/15 13:55:18;;;;;;;54.35;27.95;;;-1.60;99.90;;;;;;7370264;32;20183;-60
2022/12/15 13:59:43;;;;;;;57.83;28.10;;;-1.60;99.90;;;;;;7373262;32;20248;-59
2022/12/15 14:03:59;;;;;;;55.53;27.10;;;-1.60;99.90;;;;;;7376160;32;20410;-61
2022/12/15 14:08:02;;;;;;;52.80;27.58;;;-1.40;99.90;;;;;;7365348;32;20125;-59
2022/12/15 14:12:09;;;;;;;50.90;26.58;;;-1.30;99.90;;;;;;7366538;32;20102;-59
2022/12/15 14:16:16;;;;;;;50.92;26.12;;;-1.30;99.90;;;;;;7379186;32;20102;-59
2022/12/15 14:20:21;;;;;;;45.22;24.35;;;-1.30;99.90;;;;;;7376595;32;20288;-59
2022/12/15 14:24:29;;;;;;;54.60;27.08;;;-1.40;99.90;;;;;;7379603;32;20099;-58
2022/12/15 14:28:46;;;;;;;52.28;27.55;;;-1.50;99.90;;;;;;7373173;32;20194;-58
2022/12/15 14:33:12;;;;;;;48.92;25.08;;;-1.60;99.90;;;;;;7373346;32;20261;-60
2022/12/15 14:37:18;;;;;;;48.65;25.12;;;-1.70;99.90;;;;;;7376651;32;20120;-59
2022/12/15 14:41:23;;;;;;;50.87;25.90;;;-1.70;99.90;;;;;;7369080;32;20107;-60
2022/12/15 14:45:29;;;;;;;48.28;25.20;;;-1.90;99.90;;;;;;7372223;32;20224;-60
2022/12/15 14:49:38;;;;;;;47.80;26.12;;;-1.90;99.90;;;;;;7375488;32;20756;-59
2022/12/15 14:53:41;;;;;;;51.53;27.42;;;-2.20;99.90;;;;;;7380808;32;20107;-60
2022/12/15 14:57:45;;;;;;;63.92;30.70;;;-2.40;99.90;;;;;;7378062;32;20122;-59
2022/12/15 15:01:53;;;;;;;58.70;30.95;;;-2.40;99.90;;;;;;7367107;32;20534;-63
2022/12/15 15:06:05;;;;;;;55.65;28.25;;;-2.50;99.90;;;;;;7372367;32;20115;-60
2022/12/15 15:10:24;;;;;;;;;;;-2.50;99.90;;;;;;7374683;32;20424;-60
2022/12/15 15:14:29;;;;;;;58.85;26.83;;;-2.60;99.90;;;;;;7368949;32;20114;-59
2022/12/15 15:18:31;;;;;;;51.92;26.75;;;-2.70;99.90;;;;;;7369726;32;20121;-59
2022/12/15 15:23:06;;;;;;;52.10;26.62;;;-2.80;99.90;;;;;;7375142;32;20170;-59
2022/12/15 15:27:26;;;;;;;55.95;27.42;;;-2.90;99.90;;;;;;7371567;32;20190;-60
2022/12/15 15:31:33;;;;;;;57.08;27.98;;;-3.00;99.90;;;;;;7370678;32;20263;-62
2022/12/15 15:35:43;;;;;;;56.75;26.12;;;-3.10;99.90;;;;;;7369351;32;20125;-61
2022/12/15 15:39:53;;;;;;;50.12;26.40;;;-3.20;99.90;;;;;;7373980;32;20199;-59
2022/12/15 15:44:00;;;;;;;54.33;27.17;;;-3.30;99.90;;;;;;7365236;32;20170;-59
2022/12/15 15:48:03;;;;;;;57.15;27.52;;;-3.50;99.90;;;;;;7367511;32;20132;-60
2022/12/15 15:52:04;;;;;;;58.58;27.62;;;-3.50;99.90;;;;;;7372487;32;20111;-59
2022/12/15 15:56:10;;;;;;;58.55;28.80;;;-3.50;99.90;;;;;;7376654;32;20095;-59
2022/12/15 16:00:18;;;;;;;61.53;30.20;;;-3.60;99.90;;;;;;7373343;32;20107;-61
2022/12/15 16:04:19;;;;;;;60.08;28.45;;;-3.60;99.90;;;;;;7379441;32;20106;-60
2022/12/15 16:08:27;;;;;;;53.08;26.73;;;-3.70;99.90;;;;;;7366084;32;20102;-62
2022/12/15 16:12:41;;;;;;;56.30;26.45;;;-3.90;99.90;;;;;;7373370;32;20107;-61
2022/12/15 16:16:43;;;;;;;53.60;25.40;;;-3.90;99.90;;;;;;7379085;32;20098;-60
2022/12/15 16:20:49;;;;;;;57.72;26.25;;;-4.00;99.90;;;;;;7373915;32;20256;-59
2022/12/15 16:24:50;;;;;;;52.15;24.98;;;-4.00;99.90;;;;;;7374308;32;20216;-60
2022/12/15 16:28:53;;;;;;;51.13;25.88;;;-4.10;99.90;;;;;;7375577;32;20111;-59
2022/12/15 16:32:54;;;;;;;52.00;23.92;;;-4.20;99.90;;;;;;7374865;32;20148;-59
2022/12/15 16:36:57;;;;;;;55.10;27.17;;;-4.30;99.90;;;;;;7371294;32;20125;-61
2022/12/15 16:41:06;;;;;;;57.83;25.37;;;-4.40;99.90;;;;;;7374111;32;20549;-61
2022/12/15 16:45:14;;;;;;;52.90;26.75;;;-4.40;99.90;;;;;;7376899;32;20229;-61
2022/12/15 16:49:16;;;;;;;51.85;25.80;;;-4.50;99.90;;;;;;7381840;32;20125;-60
2022/12/15 16:53:26;;;;;;;58.03;26.92;;;-4.50;99.90;;;;;;7376020;32;20094;-61
2022/12/15 16:57:28;;;;;;;62.03;30.80;;;-4.60;99.90;;;;;;7371649;32;20141;-60
2022/12/15 17:01:29;;;;;;;67.75;31.58;;;-4.70;99.90;;;;;;7374783;32;20113;-60
2022/12/15 17:05:39;;;;;;;57.47;28.38;;;-4.70;99.90;;;;;;7376587;32;20190;-60
2022/12/15 17:09:41;;;;;;;50.28;26.10;;;-4.80;99.90;;;;;;7381490;32;20123;-61
2022/12/15 17:13:46;;;;;;;51.22;25.60;;;-4.80;99.90;;;;;;7371700;32;20122;-60
2022/12/15 17:17:49;;;;;;;46.75;24.33;;;-4.80;99.90;;;;;;7371926;32;20243;-61
2022/12/15 17:21:52;;;;;;;52.00;25.80;;;-5.00;99.90;;;;;;7376648;32;20117;-60
2022/12/15 17:25:55;;;;;;;54.03;27.20;;;-5.00;99.90;;;;;;7376670;32;20103;-60
2022/12/15 17:30:17;;;;;;;60.72;28.48;;;-5.00;99.90;;;;;;7373714;32;20102;-61
2022/12/15 17:34:27;;;;;;;45.58;22.48;;;-5.10;99.90;;;;;;7371112;32;20880;-60
2022/12/15 17:38:29;;;;;;;46.92;24.10;;;-5.10;99.90;;;;;;7372365;32;20671;-60
2022/12/15 17:42:30;;;;;;;44.95;23.40;;;-5.20;99.90;;;;;;7367323;32;20121;-60
2022/12/15 17:46:32;;;;;;;49.58;23.15;;;-5.20;99.90;;;;;;7365595;32;20099;-60
2022/12/15 17:50:34;;;;;;;47.50;23.10;;;-5.20;99.90;;;;;;7376336;32;20185;-60
2022/12/15 17:54:36;;;;;;;51.30;23.60;;;-5.30;99.90;;;;;;7378675;32;20265;-61
2022/12/15 17:58:38;;;;;;;45.20;21.52;;;-5.40;99.90;;;;;;7373151;32;20515;-60
2022/12/15 18:02:39;;;;;;;51.88;24.77;;;-5.40;99.90;;;;;;7369365;32;20099;-60
2022/12/15 18:06:43;;;;;;;50.28;24.83;;;-5.50;99.90;;;;;;7371091;32;20107;-61
2022/12/15 18:10:47;;;;;;;48.60;24.45;;;-5.50;99.90;;;;;;7377466;32;20100;-62
2022/12/15 18:14:49;;;;;;;50.45;24.77;;;-5.50;99.90;;;;;;7380780;32;20201;-62
2022/12/15 18:18:51;;;;;;;53.85;25.50;;;-5.60;99.90;;;;;;7375153;32;20130;-61
2022/12/15 18:22:53;;;;;;;49.90;26.73;;;-5.60;99.90;;;;;;7371532;32;20103;-61
2022/12/15 18:26:55;;;;;;;53.75;28.27;;;-5.60;99.90;;;;;;7373535;32;20142;-61
2022/12/15 18:31:20;;;;;;;63.13;30.50;;;-5.80;99.90;;;;;;7376475;32;20125;-63
2022/12/15 18:35:31;;;;;;;60.58;28.20;;;-5.80;99.90;;;;;;7376900;32;20645;-61
2022/12/15 18:39:33;;;;;;;52.62;29.30;;;-5.80;99.90;;;;;;7374444;32;20131;-61
2022/12/15 18:43:34;;;;;;;56.60;27.15;;;-5.80;99.90;;;;;;7377037;32;20491;-62
2022/12/15 18:47:36;;;;;;;53.80;27.55;;;-6.00;99.90;;;;;;7370760;32;20183;-60
2022/12/15 18:51:38;;;;;;;53.30;26.75;;;-5.90;99.90;;;;;;7361487;32;20913;-58
2022/12/15 18:55:40;;;;;;;54.75;26.05;;;-5.90;99.90;;;;;;7377487;32;20103;-58
2022/12/15 18:59:42;;;;;;;64.70;27.35;;;-6.00;99.90;;;;;;7378367;32;20115;-58
2022/12/15 19:03:43;;;;;;;52.80;26.58;;;-6.00;99.90;;;;;;7371896;32;20103;-58
2022/12/15 19:07:45;;;;;;;48.47;24.33;;;-6.10;99.90;;;;;;7380485;32;20166;-59
2022/12/15 19:12:16;;;;;;;48.78;25.67;;;-6.10;99.90;;;;;;7373379;32;20111;-59
2022/12/15 19:16:18;;;;;;;49.58;25.40;;;-6.10;99.90;;;;;;7375766;32;20145;-59
2022/12/15 19:24:53;;;;;;;57.03;27.67;;;-6.10;99.90;;;;;;7380385;32;20118;-59
2022/12/15 19:28:54;;;;;;;48.60;23.77;;;-6.20;99.90;;;;;;7377098;32;20123;-59
2022/12/15 19:32:56;;;;;;;52.10;25.75;;;-6.20;99.90;;;;;;7373437;32;20111;-59
2022/12/15 19:36:59;;;;;;;60.20;29.17;;;-6.10;99.90;;;;;;7372648;32;20111;-58
2022/12/15 19:41:01;;;;;;;52.62;27.15;;;-6.20;99.90;;;;;;7377325;32;20149;-59
2022/12/15 19:45:15;;;;;;;63.47;28.65;;;-6.20;99.90;;;;;;7378693;32;20224;-58
2022/12/15 19:49:17;;;;;;;53.63;28.05;;;-6.20;99.90;;;;;;7384087;32;20206;-60
2022/12/15 19:53:25;;;;;;;63.63;30.60;;;-6.30;99.90;;;;;;7379236;32;20213;-59
2022/12/15 19:57:27;;;;;;;50.92;25.12;;;-6.20;99.90;;;;;;7378029;32;20162;-60
2022/12/15 20:01:28;;;;;;;58.13;26.73;;;-6.20;99.90;;;;;;7372615;32;20202;-61
2022/12/15 20:05:31;;;;;;;48.72;24.95;;;-6.30;99.90;;;;;;7374411;32;20191;-60
2022/12/15 20:09:33;;;;;;;51.80;24.05;;;-6.20;99.90;;;;;;7374783;32;20139;-59
2022/12/15 20:13:35;;;;;;;53.80;26.70;;;-6.40;99.90;;;;;;7373016;32;20115;-59
2022/12/15 20:17:37;;;;;;;52.90;26.25;;;-6.40;99.90;;;;;;7376465;32;20573;-58
2022/12/15 20:21:40;;;;;;;47.03;23.80;;;-6.40;99.90;;;;;;7369580;32;20273;-60
2022/12/15 20:25:42;;;;;;;54.40;27.35;;;-6.40;99.90;;;;;;7372980;32;20141;-60
2022/12/15 20:29:44;;;;;;;58.10;28.85;;;-6.40;99.90;;;;;;7375192;32;20220;-59
2022/12/15 20:33:46;;;;;;;54.55;27.73;;;-6.50;99.90;;;;;;7375448;32;20107;-60
2022/12/15 20:37:49;;;;;;;60.88;28.95;;;-6.60;99.90;;;;;;7376589;32;20968;-60
2022/12/15 20:41:51;;;;;;;53.92;27.65;;;-6.60;99.90;;;;;;7373543;32;20158;-61
2022/12/15 20:46:06;;;;;;;72.55;34.70;;;-6.60;99.90;;;;;;7379624;32;20193;-61
2022/12/15 20:50:35;;;;;;;56.63;27.08;;;-6.60;99.90;;;;;;7379470;32;20198;-61
2022/12/15 20:54:36;;;;;;;52.25;23.90;;;-6.60;99.90;;;;;;7379270;32;20815;-63
2022/12/15 20:58:38;;;;;;;58.05;30.10;;;-6.60;99.90;;;;;;7369736;32;20110;-61
2022/12/15 21:02:41;;;;;;;56.47;27.40;;;-6.70;99.90;;;;;;7372375;32;20118;-62
2022/12/15 21:06:43;;;;;;;52.72;24.70;;;-6.80;99.90;;;;;;7376920;32;20123;-60
2022/12/15 21:10:54;;;;;;;53.15;25.23;;;-6.80;99.90;;;;;;7372939;32;20135;-61
2022/12/15 21:14:56;;;;;;;52.10;24.87;;;-6.80;99.90;;;;;;7372722;32;20256;-60
2022/12/15 21:19:02;;;;;;;48.65;22.75;;;-6.90;99.90;;;;;;7369051;32;20153;-60
2022/12/15 21:23:30;;;;;;;43.33;20.95;;;-6.90;99.90;;;;;;7375727;32;20538;-60
2022/12/15 21:27:32;;;;;;;47.78;23.65;;;-6.80;99.90;;;;;;7383842;32;20134;-61
2022/12/15 21:31:33;;;;;;;53.05;24.45;;;-6.90;99.90;;;;;;7372210;32;20146;-61
2022/12/15 21:35:37;;;;;;;49.00;24.05;;;-6.90;99.90;;;;;;7364456;32;20160;-61
2022/12/15 21:39:38;;;;;;;48.55;22.83;;;-6.90;99.90;;;;;;7376701;32;20126;-60
2022/12/15 21:43:41;;;;;;;48.17;23.67;;;-6.90;99.90;;;;;;7375741;32;20119;-61
2022/12/15 21:52:03;;;;;;;41.50;22.33;;;-7.10;99.90;;;;;;7373195;32;20706;-61
2022/12/15 21:56:05;;;;;;;50.55;22.62;;;-7.00;99.90;;;;;;7376719;32;20114;-60
2022/12/15 22:00:12;;;;;;;49.35;22.65;;;-7.00;99.90;;;;;;7376992;32;20107;-60
2022/12/15 22:04:17;;;;;;;46.72;24.55;;;-7.00;99.90;;;;;;7373153;32;20106;-60
2022/12/15 22:08:22;;;;;;;48.60;22.77;;;-7.10;99.90;;;;;;7376557;32;20201;-60
2022/12/15 22:12:25;;;;;;;47.08;23.10;;;-7.20;99.90;;;;;;7378075;32;20114;-60
2022/12/15 22:16:27;;;;;;;44.78;22.37;;;-7.20;99.90;;;;;;7379957;32;20114;-61
2022/12/15 22:20:28;;;;;;;51.45;22.83;;;-7.20;99.90;;;;;;7368371;32;20198;-60
2022/12/15 22:24:30;;;;;;;50.80;21.87;;;-7.10;99.90;;;;;;7372443;32;20165;-60
2022/12/15 22:28:32;;;;;;;49.85;22.65;;;-7.10;99.90;;;;;;7380097;32;20110;-58
2022/12/15 22:32:35;;;;;;;49.38;25.10;;;-7.10;99.90;;;;;;7383710;32;20122;-60
2022/12/15 22:36:36;;;;;;;47.72;25.27;;;-7.10;99.90;;;;;;7375128;32;20199;-60
2022/12/15 22:40:38;;;;;;;50.65;24.05;;;-7.10;99.90;;;;;;7383906;32;20619;-61
2022/12/15 22:44:40;;;;;;;46.10;23.10;;;-7.00;99.90;;;;;;7373870;32;20160;-60
2022/12/15 22:48:46;;;;;;;45.10;21.40;;;-7.30;99.90;;;;;;7377493;32;20528;-60
2022/12/15 22:52:48;;;;;;;44.07;23.67;;;-7.20;99.90;;;;;;7378946;32;20110;-61
2022/12/15 22:57:03;;;;;;;46.20;22.85;;;-7.30;99.90;;;;;;7372024;32;20114;-60
2022/12/15 23:01:05;;;;;;;51.05;22.87;;;-7.30;99.90;;;;;;7367988;32;20111;-60
2022/12/15 23:05:08;;;;;;;46.05;22.62;;;-7.40;99.90;;;;;;7371178;32;20132;-61
2022/12/15 23:09:09;;;;;;;41.70;21.55;;;-7.40;99.90;;;;;;7373415;32;20269;-59
2022/12/15 23:13:11;;;;;;;47.30;22.25;;;-7.50;99.90;;;;;;7368166;32;20583;-61
2022/12/15 23:17:13;;;;;;;54.17;26.30;;;-7.40;99.90;;;;;;7372068;32;20115;-60